sensor_id;sensor_type;location;lat;lon;timestamp;P1;durP1;ratioP1;P2;durP2;ratioP2
75739;SDS011;64357;51.344;6.550;2022-12-18T00:01:05;16.83;;;5.10;;
75739;SDS011;64357;51.344;6.550;2022-12-18T00:03:38;18.70;;;5.45;;
75739;SDS011;64357;51.344;6.550;2022-12-18T00:06:04;14.90;;;4.55;;
75739;SDS011;64357;51.344;6.550;2022-12-18T00:08:29;14.88;;;5.03;;
75739;SDS011;64357;51.344;6.550;2022-12-18T00:10:54;12.03;;;4.33;;
75739;SDS011;64357;51.344;6.550;2022-12-18T00:13:20;16.60;;;4.80;;
75739;SDS011;64357;51.344;6.550;2022-12-18T00:15:45;14.70;;;4.15;;
75739;SDS011;64357;51.344;6.550;2022-12-18T00:18:11;11.43;;;4.10;;
75739;SDS011;64357;51.344;6.550;2022-12-18T00:20:39;14.85;;;4.45;;
75739;SDS011;64357;51.344;6.550;2022-12-18T00:23:05;11.40;;;4.28;;
75739;SDS011;64357;51.344;6.550;2022-12-18T00:25:35;13.27;;;4.47;;
75739;SDS011;64357;51.344;6.550;2022-12-18T00:28:02;12.65;;;4.38;;
75739;SDS011;64357;51.344;6.550;2022-12-18T00:30:28;14.93;;;4.28;;
75739;SDS011;64357;51.344;6.550;2022-12-18T00:32:54;12.27;;;4.50;;
75739;SDS011;64357;51.344;6.550;2022-12-18T00:35:19;13.38;;;4.85;;
75739;SDS011;64357;51.344;6.550;2022-12-18T00:37:45;11.95;;;3.83;;
75739;SDS011;64357;51.344;6.550;2022-12-18T00:40:11;18.20;;;4.23;;
75739;SDS011;64357;51.344;6.550;2022-12-18T00:42:36;11.77;;;3.53;;
75739;SDS011;64357;51.344;6.550;2022-12-18T00:45:20;13.40;;;3.95;;
75739;SDS011;64357;51.344;6.550;2022-12-18T00:47:49;14.18;;;5.43;;
75739;SDS011;64357;51.344;6.550;2022-12-18T00:50:17;14.40;;;4.83;;
75739;SDS011;64357;51.344;6.550;2022-12-18T00:52:42;11.88;;;4.10;;
75739;SDS011;64357;51.344;6.550;2022-12-18T00:55:12;13.32;;;4.38;;
75739;SDS011;64357;51.344;6.550;2022-12-18T00:57:38;14.27;;;4.00;;
75739;SDS011;64357;51.344;6.550;2022-12-18T01:00:04;13.10;;;4.28;;
75739;SDS011;64357;51.344;6.550;2022-12-18T01:02:34;15.95;;;5.28;;
75739;SDS011;64357;51.344;6.550;2022-12-18T01:05:02;14.10;;;4.78;;
75739;SDS011;64357;51.344;6.550;2022-12-18T01:07:27;15.20;;;4.72;;
75739;SDS011;64357;51.344;6.550;2022-12-18T01:09:52;13.53;;;4.97;;
75739;SDS011;64357;51.344;6.550;2022-12-18T01:12:18;12.00;;;4.23;;
75739;SDS011;64357;51.344;6.550;2022-12-18T01:14:43;7.67;;;2.83;;
75739;SDS011;64357;51.344;6.550;2022-12-18T01:17:08;13.80;;;4.10;;
75739;SDS011;64357;51.344;6.550;2022-12-18T01:19:34;11.50;;;3.77;;
75739;SDS011;64357;51.344;6.550;2022-12-18T01:22:01;13.10;;;4.00;;
75739;SDS011;64357;51.344;6.550;2022-12-18T01:24:29;13.52;;;4.00;;
75739;SDS011;64357;51.344;6.550;2022-12-18T01:26:54;15.68;;;4.20;;
75739;SDS011;64357;51.344;6.550;2022-12-18T01:29:19;12.13;;;4.20;;
75739;SDS011;64357;51.344;6.550;2022-12-18T01:31:47;12.82;;;4.15;;
75739;SDS011;64357;51.344;6.550;2022-12-18T01:34:13;14.90;;;4.50;;
75739;SDS011;64357;51.344;6.550;2022-12-18T01:36:38;20.90;;;5.43;;
75739;SDS011;64357;51.344;6.550;2022-12-18T01:39:06;13.23;;;5.20;;
75739;SDS011;64357;51.344;6.550;2022-12-18T01:41:36;14.10;;;4.55;;
75739;SDS011;64357;51.344;6.550;2022-12-18T01:47:15;12.05;;;4.47;;
75739;SDS011;64357;51.344;6.550;2022-12-18T01:49:48;16.42;;;4.43;;
75739;SDS011;64357;51.344;6.550;2022-12-18T01:52:13;17.35;;;4.88;;
75739;SDS011;64357;51.344;6.550;2022-12-18T01:54:40;13.73;;;5.72;;
75739;SDS011;64357;51.344;6.550;2022-12-18T01:57:06;13.20;;;4.72;;
75739;SDS011;64357;51.344;6.550;2022-12-18T01:59:32;11.60;;;4.22;;
75739;SDS011;64357;51.344;6.550;2022-12-18T02:01:59;14.10;;;4.07;;
75739;SDS011;64357;51.344;6.550;2022-12-18T02:04:26;18.20;;;5.85;;
75739;SDS011;64357;51.344;6.550;2022-12-18T02:12:31;14.65;;;4.63;;
75739;SDS011;64357;51.344;6.550;2022-12-18T02:15:09;11.07;;;4.35;;
75739;SDS011;64357;51.344;6.550;2022-12-18T02:17:52;15.20;;;5.10;;
75739;SDS011;64357;51.344;6.550;2022-12-18T02:28:22;12.95;;;4.10;;
75739;SDS011;64357;51.344;6.550;2022-12-18T02:30:51;9.85;;;3.42;;
75739;SDS011;64357;51.344;6.550;2022-12-18T02:33:21;13.48;;;4.55;;
75739;SDS011;64357;51.344;6.550;2022-12-18T02:35:51;15.60;;;4.55;;
75739;SDS011;64357;51.344;6.550;2022-12-18T02:38:19;14.77;;;4.53;;
75739;SDS011;64357;51.344;6.550;2022-12-18T02:40:47;11.30;;;3.53;;
75739;SDS011;64357;51.344;6.550;2022-12-18T02:43:15;16.33;;;5.13;;
75739;SDS011;64357;51.344;6.550;2022-12-18T02:45:59;9.40;;;3.70;;
75739;SDS011;64357;51.344;6.550;2022-12-18T02:48:30;14.35;;;4.82;;
75739;SDS011;64357;51.344;6.550;2022-12-18T02:54:06;14.65;;;4.00;;
75739;SDS011;64357;51.344;6.550;2022-12-18T02:56:45;13.82;;;4.25;;
75739;SDS011;64357;51.344;6.550;2022-12-18T02:59:16;13.65;;;5.15;;
75739;SDS011;64357;51.344;6.550;2022-12-18T03:04:41;15.95;;;5.15;;
75739;SDS011;64357;51.344;6.550;2022-12-18T03:07:27;13.07;;;4.35;;
75739;SDS011;64357;51.344;6.550;2022-12-18T03:10:00;14.27;;;4.80;;
75739;SDS011;64357;51.344;6.550;2022-12-18T03:12:35;14.15;;;4.15;;
75739;SDS011;64357;51.344;6.550;2022-12-18T03:17:47;14.45;;;5.07;;
75739;SDS011;64357;51.344;6.550;2022-12-18T03:20:18;17.48;;;4.88;;
75739;SDS011;64357;51.344;6.550;2022-12-18T03:22:49;10.73;;;4.32;;
75739;SDS011;64357;51.344;6.550;2022-12-18T03:25:21;9.65;;;3.67;;
75739;SDS011;64357;51.344;6.550;2022-12-18T03:27:51;10.48;;;3.42;;
75739;SDS011;64357;51.344;6.550;2022-12-18T03:30:22;11.82;;;3.83;;
75739;SDS011;64357;51.344;6.550;2022-12-18T03:32:50;11.25;;;3.25;;
75739;SDS011;64357;51.344;6.550;2022-12-18T03:35:22;9.40;;;3.28;;
75739;SDS011;64357;51.344;6.550;2022-12-18T03:37:51;14.45;;;3.95;;
75739;SDS011;64357;51.344;6.550;2022-12-18T03:40:20;13.30;;;4.57;;
75739;SDS011;64357;51.344;6.550;2022-12-18T03:42:52;10.90;;;4.28;;
75739;SDS011;64357;51.344;6.550;2022-12-18T03:45:30;15.35;;;4.85;;
75739;SDS011;64357;51.344;6.550;2022-12-18T03:56:06;11.85;;;5.28;;
75739;SDS011;64357;51.344;6.550;2022-12-18T03:58:34;17.58;;;4.95;;
75739;SDS011;64357;51.344;6.550;2022-12-18T04:01:03;13.73;;;5.03;;
75739;SDS011;64357;51.344;6.550;2022-12-18T04:03:34;14.05;;;4.75;;
75739;SDS011;64357;51.344;6.550;2022-12-18T04:06:01;14.82;;;5.05;;
75739;SDS011;64357;51.344;6.550;2022-12-18T04:08:27;12.73;;;4.13;;
75739;SDS011;64357;51.344;6.550;2022-12-18T04:10:53;12.60;;;4.30;;
75739;SDS011;64357;51.344;6.550;2022-12-18T04:13:37;12.20;;;4.10;;
75739;SDS011;64357;51.344;6.550;2022-12-18T04:16:04;10.52;;;3.42;;
75739;SDS011;64357;51.344;6.550;2022-12-18T04:18:30;10.52;;;3.60;;
75739;SDS011;64357;51.344;6.550;2022-12-18T04:20:55;12.55;;;3.75;;
75739;SDS011;64357;51.344;6.550;2022-12-18T04:23:20;9.27;;;3.37;;
75739;SDS011;64357;51.344;6.550;2022-12-18T04:25:48;10.88;;;3.75;;
75739;SDS011;64357;51.344;6.550;2022-12-18T04:28:14;13.07;;;4.80;;
75739;SDS011;64357;51.344;6.550;2022-12-18T04:30:39;11.47;;;3.90;;
75739;SDS011;64357;51.344;6.550;2022-12-18T04:33:10;10.02;;;3.50;;
75739;SDS011;64357;51.344;6.550;2022-12-18T04:35:36;12.32;;;4.18;;
75739;SDS011;64357;51.344;6.550;2022-12-18T04:38:05;14.40;;;4.68;;
75739;SDS011;64357;51.344;6.550;2022-12-18T04:40:31;9.93;;;3.75;;
75739;SDS011;64357;51.344;6.550;2022-12-18T04:42:59;8.90;;;3.42;;
75739;SDS011;64357;51.344;6.550;2022-12-18T04:45:25;10.40;;;3.50;;
75739;SDS011;64357;51.344;6.550;2022-12-18T04:47:52;9.90;;;3.47;;
75739;SDS011;64357;51.344;6.550;2022-12-18T04:50:21;11.27;;;3.97;;
75739;SDS011;64357;51.344;6.550;2022-12-18T04:52:46;9.83;;;3.77;;
75739;SDS011;64357;51.344;6.550;2022-12-18T04:55:14;9.15;;;3.72;;
75739;SDS011;64357;51.344;6.550;2022-12-18T04:57:42;7.57;;;3.22;;
75739;SDS011;64357;51.344;6.550;2022-12-18T05:00:07;13.57;;;4.63;;
75739;SDS011;64357;51.344;6.550;2022-12-18T05:02:33;12.23;;;3.85;;
75739;SDS011;64357;51.344;6.550;2022-12-18T05:04:59;13.63;;;4.00;;
75739;SDS011;64357;51.344;6.550;2022-12-18T05:07:24;10.23;;;3.67;;
75739;SDS011;64357;51.344;6.550;2022-12-18T05:09:49;10.82;;;4.30;;
75739;SDS011;64357;51.344;6.550;2022-12-18T05:12:15;10.07;;;3.77;;
75739;SDS011;64357;51.344;6.550;2022-12-18T05:14:40;11.67;;;3.63;;
75739;SDS011;64357;51.344;6.550;2022-12-18T05:17:08;11.05;;;4.28;;
75739;SDS011;64357;51.344;6.550;2022-12-18T05:19:33;10.73;;;3.53;;
75739;SDS011;64357;51.344;6.550;2022-12-18T05:21:59;11.03;;;3.60;;
75739;SDS011;64357;51.344;6.550;2022-12-18T05:24:26;9.15;;;3.33;;
75739;SDS011;64357;51.344;6.550;2022-12-18T05:26:52;12.60;;;3.95;;
75739;SDS011;64357;51.344;6.550;2022-12-18T05:29:17;10.87;;;3.70;;
75739;SDS011;64357;51.344;6.550;2022-12-18T05:31:42;9.27;;;3.03;;
75739;SDS011;64357;51.344;6.550;2022-12-18T05:34:08;10.63;;;3.60;;
75739;SDS011;64357;51.344;6.550;2022-12-18T05:36:33;10.48;;;3.00;;
75739;SDS011;64357;51.344;6.550;2022-12-18T05:39:01;10.57;;;3.92;;
75739;SDS011;64357;51.344;6.550;2022-12-18T05:41:27;9.32;;;3.65;;
75739;SDS011;64357;51.344;6.550;2022-12-18T05:43:53;9.52;;;3.28;;
75739;SDS011;64357;51.344;6.550;2022-12-18T05:46:19;11.70;;;3.42;;
75739;SDS011;64357;51.344;6.550;2022-12-18T05:48:45;9.90;;;3.17;;
75739;SDS011;64357;51.344;6.550;2022-12-18T05:51:14;10.75;;;3.70;;
75739;SDS011;64357;51.344;6.550;2022-12-18T05:53:45;11.18;;;3.17;;
75739;SDS011;64357;51.344;6.550;2022-12-18T05:56:15;7.88;;;3.20;;
75739;SDS011;64357;51.344;6.550;2022-12-18T05:58:43;9.63;;;3.13;;
75739;SDS011;64357;51.344;6.550;2022-12-18T06:01:16;13.68;;;3.63;;
75739;SDS011;64357;51.344;6.550;2022-12-18T06:03:43;11.50;;;3.65;;
75739;SDS011;64357;51.344;6.550;2022-12-18T06:06:13;9.32;;;3.45;;
75739;SDS011;64357;51.344;6.550;2022-12-18T06:08:41;9.43;;;3.53;;
75739;SDS011;64357;51.344;6.550;2022-12-18T06:11:11;10.07;;;3.22;;
75739;SDS011;64357;51.344;6.550;2022-12-18T06:13:41;10.82;;;3.28;;
75739;SDS011;64357;51.344;6.550;2022-12-18T06:16:09;12.60;;;3.67;;
75739;SDS011;64357;51.344;6.550;2022-12-18T06:18:38;13.05;;;3.60;;
75739;SDS011;64357;51.344;6.550;2022-12-18T06:21:03;15.25;;;4.10;;
75739;SDS011;64357;51.344;6.550;2022-12-18T06:23:31;10.48;;;3.42;;
75739;SDS011;64357;51.344;6.550;2022-12-18T06:25:58;12.27;;;4.10;;
75739;SDS011;64357;51.344;6.550;2022-12-18T06:28:27;12.13;;;3.83;;
75739;SDS011;64357;51.344;6.550;2022-12-18T06:30:53;12.70;;;3.73;;
75739;SDS011;64357;51.344;6.550;2022-12-18T06:33:18;11.47;;;3.53;;
75739;SDS011;64357;51.344;6.550;2022-12-18T06:35:43;10.43;;;3.70;;
75739;SDS011;64357;51.344;6.550;2022-12-18T06:38:11;12.80;;;4.18;;
75739;SDS011;64357;51.344;6.550;2022-12-18T06:40:37;11.87;;;4.00;;
75739;SDS011;64357;51.344;6.550;2022-12-18T06:43:04;12.50;;;3.90;;
75739;SDS011;64357;51.344;6.550;2022-12-18T06:45:29;11.40;;;4.18;;
75739;SDS011;64357;51.344;6.550;2022-12-18T06:47:55;11.77;;;4.03;;
75739;SDS011;64357;51.344;6.550;2022-12-18T06:50:20;14.23;;;4.67;;
75739;SDS011;64357;51.344;6.550;2022-12-18T06:52:45;12.30;;;4.07;;
75739;SDS011;64357;51.344;6.550;2022-12-18T06:55:11;16.53;;;5.17;;
75739;SDS011;64357;51.344;6.550;2022-12-18T06:57:37;11.23;;;3.38;;
75739;SDS011;64357;51.344;6.550;2022-12-18T07:00:05;10.27;;;3.80;;
75739;SDS011;64357;51.344;6.550;2022-12-18T07:02:34;9.40;;;2.97;;
75739;SDS011;64357;51.344;6.550;2022-12-18T07:04:59;11.53;;;3.70;;
75739;SDS011;64357;51.344;6.550;2022-12-18T07:07:25;14.05;;;4.07;;
75739;SDS011;64357;51.344;6.550;2022-12-18T07:09:51;10.27;;;3.23;;
75739;SDS011;64357;51.344;6.550;2022-12-18T07:12:16;11.98;;;3.78;;
75739;SDS011;64357;51.344;6.550;2022-12-18T07:14:42;9.13;;;3.17;;
75739;SDS011;64357;51.344;6.550;2022-12-18T07:17:07;9.15;;;3.75;;
75739;SDS011;64357;51.344;6.550;2022-12-18T07:19:33;9.90;;;3.53;;
75739;SDS011;64357;51.344;6.550;2022-12-18T07:21:59;8.88;;;2.58;;
75739;SDS011;64357;51.344;6.550;2022-12-18T07:24:26;11.25;;;3.97;;
75739;SDS011;64357;51.344;6.550;2022-12-18T07:26:52;10.23;;;3.38;;
75739;SDS011;64357;51.344;6.550;2022-12-18T07:29:18;10.90;;;3.87;;
75739;SDS011;64357;51.344;6.550;2022-12-18T07:31:43;12.02;;;3.97;;
75739;SDS011;64357;51.344;6.550;2022-12-18T07:34:10;13.63;;;4.32;;
75739;SDS011;64357;51.344;6.550;2022-12-18T07:36:36;10.95;;;3.30;;
75739;SDS011;64357;51.344;6.550;2022-12-18T07:39:02;13.98;;;4.07;;
75739;SDS011;64357;51.344;6.550;2022-12-18T07:41:27;11.70;;;4.53;;
75739;SDS011;64357;51.344;6.550;2022-12-18T07:43:57;11.98;;;4.40;;
75739;SDS011;64357;51.344;6.550;2022-12-18T07:46:23;10.17;;;4.00;;
75739;SDS011;64357;51.344;6.550;2022-12-18T07:48:48;11.32;;;3.35;;
75739;SDS011;64357;51.344;6.550;2022-12-18T07:51:13;13.10;;;3.60;;
75739;SDS011;64357;51.344;6.550;2022-12-18T07:53:39;12.23;;;4.50;;
75739;SDS011;64357;51.344;6.550;2022-12-18T07:56:06;14.00;;;4.47;;
75739;SDS011;64357;51.344;6.550;2022-12-18T07:58:34;13.57;;;4.00;;
75739;SDS011;64357;51.344;6.550;2022-12-18T08:01:06;13.07;;;5.00;;
75739;SDS011;64357;51.344;6.550;2022-12-18T08:03:33;12.00;;;4.28;;
75739;SDS011;64357;51.344;6.550;2022-12-18T08:06:02;14.18;;;4.88;;
75739;SDS011;64357;51.344;6.550;2022-12-18T08:08:29;11.75;;;4.45;;
75739;SDS011;64357;51.344;6.550;2022-12-18T08:10:57;12.13;;;3.92;;
75739;SDS011;64357;51.344;6.550;2022-12-18T08:13:22;12.18;;;4.70;;
75739;SDS011;64357;51.344;6.550;2022-12-18T08:15:55;10.68;;;3.83;;
75739;SDS011;64357;51.344;6.550;2022-12-18T08:18:25;13.35;;;3.95;;
75739;SDS011;64357;51.344;6.550;2022-12-18T08:20:54;14.52;;;4.82;;
75739;SDS011;64357;51.344;6.550;2022-12-18T08:23:20;11.05;;;3.67;;
75739;SDS011;64357;51.344;6.550;2022-12-18T08:25:45;11.50;;;3.67;;
75739;SDS011;64357;51.344;6.550;2022-12-18T08:28:11;12.63;;;4.90;;
75739;SDS011;64357;51.344;6.550;2022-12-18T08:30:38;12.13;;;4.07;;
75739;SDS011;64357;51.344;6.550;2022-12-18T08:33:03;12.27;;;4.77;;
75739;SDS011;64357;51.344;6.550;2022-12-18T08:35:29;11.07;;;4.10;;
75739;SDS011;64357;51.344;6.550;2022-12-18T08:37:55;12.70;;;4.23;;
75739;SDS011;64357;51.344;6.550;2022-12-18T08:40:20;12.33;;;4.30;;
75739;SDS011;64357;51.344;6.550;2022-12-18T08:42:45;11.83;;;4.63;;
75739;SDS011;64357;51.344;6.550;2022-12-18T08:45:29;10.65;;;3.17;;
75739;SDS011;64357;51.344;6.550;2022-12-18T08:48:01;12.15;;;4.43;;
75739;SDS011;64357;51.344;6.550;2022-12-18T08:50:28;10.45;;;4.15;;
75739;SDS011;64357;51.344;6.550;2022-12-18T08:52:58;13.32;;;4.03;;
75739;SDS011;64357;51.344;6.550;2022-12-18T08:55:23;11.95;;;4.53;;
75739;SDS011;64357;51.344;6.550;2022-12-18T08:57:49;12.20;;;4.18;;
75739;SDS011;64357;51.344;6.550;2022-12-18T09:00:15;11.50;;;4.10;;
75739;SDS011;64357;51.344;6.550;2022-12-18T09:02:43;12.00;;;4.50;;
75739;SDS011;64357;51.344;6.550;2022-12-18T09:05:10;17.73;;;5.30;;
75739;SDS011;64357;51.344;6.550;2022-12-18T09:07:36;14.93;;;4.90;;
75739;SDS011;64357;51.344;6.550;2022-12-18T09:10:04;17.23;;;4.80;;
75739;SDS011;64357;51.344;6.550;2022-12-18T09:12:29;13.80;;;4.47;;
75739;SDS011;64357;51.344;6.550;2022-12-18T09:14:55;12.30;;;4.33;;
75739;SDS011;64357;51.344;6.550;2022-12-18T09:17:21;11.23;;;3.60;;
75739;SDS011;64357;51.344;6.550;2022-12-18T09:19:46;15.48;;;5.63;;
75739;SDS011;64357;51.344;6.550;2022-12-18T09:22:12;12.93;;;5.10;;
75739;SDS011;64357;51.344;6.550;2022-12-18T09:24:37;12.70;;;4.25;;
75739;SDS011;64357;51.344;6.550;2022-12-18T09:27:02;14.83;;;4.97;;
75739;SDS011;64357;51.344;6.550;2022-12-18T09:29:30;13.30;;;4.65;;
75739;SDS011;64357;51.344;6.550;2022-12-18T09:31:55;13.95;;;4.80;;
75739;SDS011;64357;51.344;6.550;2022-12-18T09:34:21;15.40;;;5.05;;
75739;SDS011;64357;51.344;6.550;2022-12-18T09:36:47;11.75;;;4.07;;
75739;SDS011;64357;51.344;6.550;2022-12-18T09:39:12;13.15;;;4.90;;
75739;SDS011;64357;51.344;6.550;2022-12-18T09:47:30;11.15;;;4.20;;
75739;SDS011;64357;51.344;6.550;2022-12-18T09:50:02;12.32;;;4.25;;
75739;SDS011;64357;51.344;6.550;2022-12-18T09:52:33;10.88;;;4.38;;
75739;SDS011;64357;51.344;6.550;2022-12-18T09:55:20;13.38;;;4.35;;
75739;SDS011;64357;51.344;6.550;2022-12-18T10:00:22;12.75;;;4.50;;
75739;SDS011;64357;51.344;6.550;2022-12-18T10:02:50;13.40;;;4.43;;
75739;SDS011;64357;51.344;6.550;2022-12-18T10:05:20;11.82;;;4.10;;
75739;SDS011;64357;51.344;6.550;2022-12-18T10:07:53;12.35;;;4.80;;
75739;SDS011;64357;51.344;6.550;2022-12-18T10:15:26;13.63;;;4.73;;
75739;SDS011;64357;51.344;6.550;2022-12-18T10:17:57;13.90;;;4.07;;
75739;SDS011;64357;51.344;6.550;2022-12-18T10:20:38;14.30;;;4.88;;
75739;SDS011;64357;51.344;6.550;2022-12-18T10:25:51;11.25;;;3.60;;
75739;SDS011;64357;51.344;6.550;2022-12-18T10:28:20;13.98;;;5.68;;
75739;SDS011;64357;51.344;6.550;2022-12-18T10:30:48;16.30;;;4.50;;
75739;SDS011;64357;51.344;6.550;2022-12-18T10:33:17;13.25;;;4.70;;
75739;SDS011;64357;51.344;6.550;2022-12-18T10:35:48;11.35;;;4.47;;
75739;SDS011;64357;51.344;6.550;2022-12-18T10:40:49;11.77;;;3.90;;
75739;SDS011;64357;51.344;6.550;2022-12-18T10:43:20;16.05;;;4.18;;
75739;SDS011;64357;51.344;6.550;2022-12-18T10:48:26;12.25;;;4.53;;
75739;SDS011;64357;51.344;6.550;2022-12-18T10:50:52;12.70;;;4.47;;
75739;SDS011;64357;51.344;6.550;2022-12-18T10:53:24;14.07;;;5.03;;
75739;SDS011;64357;51.344;6.550;2022-12-18T10:55:55;12.38;;;4.55;;
75739;SDS011;64357;51.344;6.550;2022-12-18T10:58:30;12.60;;;4.68;;
75739;SDS011;64357;51.344;6.550;2022-12-18T11:06:20;11.85;;;4.25;;
75739;SDS011;64357;51.344;6.550;2022-12-18T11:11:23;13.82;;;4.28;;
75739;SDS011;64357;51.344;6.550;2022-12-18T11:13:56;14.80;;;5.10;;
75739;SDS011;64357;51.344;6.550;2022-12-18T11:16:30;14.23;;;5.30;;
75739;SDS011;64357;51.344;6.550;2022-12-18T11:19:08;13.55;;;4.47;;
75739;SDS011;64357;51.344;6.550;2022-12-18T11:21:44;13.20;;;5.18;;
75739;SDS011;64357;51.344;6.550;2022-12-18T11:27:16;16.42;;;5.80;;
75739;SDS011;64357;51.344;6.550;2022-12-18T11:29:45;15.43;;;5.47;;
75739;SDS011;64357;51.344;6.550;2022-12-18T11:34:39;13.07;;;4.55;;
75739;SDS011;64357;51.344;6.550;2022-12-18T11:37:09;14.32;;;4.78;;
75739;SDS011;64357;51.344;6.550;2022-12-18T11:39:40;17.13;;;5.47;;
75739;SDS011;64357;51.344;6.550;2022-12-18T11:42:17;13.98;;;5.05;;
75739;SDS011;64357;51.344;6.550;2022-12-18T11:50:24;14.63;;;5.28;;
75739;SDS011;64357;51.344;6.550;2022-12-18T11:52:52;14.68;;;4.60;;
75739;SDS011;64357;51.344;6.550;2022-12-18T12:01:19;13.60;;;5.60;;
75739;SDS011;64357;51.344;6.550;2022-12-18T12:03:51;13.25;;;4.57;;
75739;SDS011;64357;51.344;6.550;2022-12-18T12:06:45;14.88;;;5.82;;
75739;SDS011;64357;51.344;6.550;2022-12-18T12:09:16;14.57;;;5.28;;
75739;SDS011;64357;51.344;6.550;2022-12-18T12:21:02;18.23;;;6.65;;
75739;SDS011;64357;51.344;6.550;2022-12-18T12:23:33;15.07;;;4.72;;
75739;SDS011;64357;51.344;6.550;2022-12-18T12:26:09;17.35;;;7.32;;
75739;SDS011;64357;51.344;6.550;2022-12-18T12:33:59;17.92;;;6.43;;
75739;SDS011;64357;51.344;6.550;2022-12-18T12:39:06;18.05;;;6.85;;
75739;SDS011;64357;51.344;6.550;2022-12-18T12:41:36;18.23;;;7.18;;
75739;SDS011;64357;51.344;6.550;2022-12-18T12:44:22;19.65;;;7.35;;
75739;SDS011;64357;51.344;6.550;2022-12-18T12:46:55;16.13;;;6.25;;
75739;SDS011;64357;51.344;6.550;2022-12-18T12:49:26;24.58;;;9.25;;
75739;SDS011;64357;51.344;6.550;2022-12-18T12:51:58;22.05;;;6.95;;
75739;SDS011;64357;51.344;6.550;2022-12-18T12:54:29;16.80;;;6.32;;
75739;SDS011;64357;51.344;6.550;2022-12-18T13:02:20;20.83;;;8.73;;
75739;SDS011;64357;51.344;6.550;2022-12-18T13:04:58;15.23;;;5.93;;
75739;SDS011;64357;51.344;6.550;2022-12-18T13:07:30;17.40;;;6.53;;
75739;SDS011;64357;51.344;6.550;2022-12-18T13:10:13;17.83;;;6.30;;
75739;SDS011;64357;51.344;6.550;2022-12-18T13:13:15;15.98;;;5.85;;
75739;SDS011;64357;51.344;6.550;2022-12-18T13:20:34;18.55;;;6.68;;
75739;SDS011;64357;51.344;6.550;2022-12-18T13:31:01;19.80;;;7.07;;
75739;SDS011;64357;51.344;6.550;2022-12-18T13:36:48;22.00;;;8.93;;
75739;SDS011;64357;51.344;6.550;2022-12-18T13:45:05;19.52;;;6.32;;
75739;SDS011;64357;51.344;6.550;2022-12-18T13:48:22;17.50;;;6.75;;
75739;SDS011;64357;51.344;6.550;2022-12-18T13:50:56;18.42;;;7.00;;
75739;SDS011;64357;51.344;6.550;2022-12-18T13:53:28;17.65;;;6.97;;
75739;SDS011;64357;51.344;6.550;2022-12-18T13:55:58;14.00;;;5.50;;
75739;SDS011;64357;51.344;6.550;2022-12-18T13:58:26;16.58;;;6.00;;
75739;SDS011;64357;51.344;6.550;2022-12-18T14:00:52;16.38;;;6.10;;
75739;SDS011;64357;51.344;6.550;2022-12-18T14:03:22;15.80;;;5.87;;
75739;SDS011;64357;51.344;6.550;2022-12-18T14:06:01;18.83;;;7.25;;
75739;SDS011;64357;51.344;6.550;2022-12-18T14:08:35;15.27;;;5.25;;
75739;SDS011;64357;51.344;6.550;2022-12-18T14:11:04;18.42;;;6.68;;
75739;SDS011;64357;51.344;6.550;2022-12-18T14:13:41;17.20;;;7.10;;
75739;SDS011;64357;51.344;6.550;2022-12-18T14:16:07;17.67;;;7.78;;
75739;SDS011;64357;51.344;6.550;2022-12-18T14:21:23;20.35;;;6.93;;
75739;SDS011;64357;51.344;6.550;2022-12-18T14:26:40;18.20;;;7.03;;
75739;SDS011;64357;51.344;6.550;2022-12-18T14:32:04;18.55;;;6.65;;
75739;SDS011;64357;51.344;6.550;2022-12-18T14:34:33;21.38;;;7.50;;
75739;SDS011;64357;51.344;6.550;2022-12-18T14:36:58;20.30;;;7.10;;
75739;SDS011;64357;51.344;6.550;2022-12-18T14:39:34;17.05;;;6.50;;
75739;SDS011;64357;51.344;6.550;2022-12-18T14:41:59;22.40;;;8.23;;
75739;SDS011;64357;51.344;6.550;2022-12-18T14:44:24;17.83;;;7.00;;
75739;SDS011;64357;51.344;6.550;2022-12-18T14:46:50;19.45;;;7.40;;
75739;SDS011;64357;51.344;6.550;2022-12-18T14:49:32;19.90;;;8.00;;
75739;SDS011;64357;51.344;6.550;2022-12-18T14:52:05;20.40;;;7.57;;
75739;SDS011;64357;51.344;6.550;2022-12-18T14:54:45;18.50;;;7.40;;
75739;SDS011;64357;51.344;6.550;2022-12-18T14:57:18;22.42;;;8.73;;
75739;SDS011;64357;51.344;6.550;2022-12-18T14:59:50;18.92;;;8.43;;
75739;SDS011;64357;51.344;6.550;2022-12-18T15:02:20;23.52;;;8.68;;
75739;SDS011;64357;51.344;6.550;2022-12-18T15:04:48;22.15;;;8.32;;
75739;SDS011;64357;51.344;6.550;2022-12-18T15:10:14;17.45;;;6.57;;
75739;SDS011;64357;51.344;6.550;2022-12-18T15:20:40;20.80;;;8.07;;
75739;SDS011;64357;51.344;6.550;2022-12-18T15:23:22;18.88;;;7.22;;
75739;SDS011;64357;51.344;6.550;2022-12-18T15:25:49;16.73;;;6.30;;
75739;SDS011;64357;51.344;6.550;2022-12-18T15:28:32;20.55;;;8.10;;
75739;SDS011;64357;51.344;6.550;2022-12-18T15:31:03;21.48;;;8.20;;
75739;SDS011;64357;51.344;6.550;2022-12-18T15:33:35;21.52;;;8.30;;
75739;SDS011;64357;51.344;6.550;2022-12-18T15:36:07;22.52;;;7.88;;
75739;SDS011;64357;51.344;6.550;2022-12-18T15:38:34;19.55;;;8.30;;
75739;SDS011;64357;51.344;6.550;2022-12-18T15:41:00;24.05;;;8.13;;
75739;SDS011;64357;51.344;6.550;2022-12-18T15:43:31;21.73;;;7.05;;
75739;SDS011;64357;51.344;6.550;2022-12-18T15:48:35;21.35;;;7.97;;
75739;SDS011;64357;51.344;6.550;2022-12-18T15:51:05;23.15;;;9.35;;
75739;SDS011;64357;51.344;6.550;2022-12-18T15:53:36;20.27;;;8.02;;
75739;SDS011;64357;51.344;6.550;2022-12-18T15:56:07;21.85;;;7.60;;
75739;SDS011;64357;51.344;6.550;2022-12-18T15:58:54;19.90;;;8.88;;
75739;SDS011;64357;51.344;6.550;2022-12-18T16:01:20;21.75;;;8.43;;
75739;SDS011;64357;51.344;6.550;2022-12-18T16:03:50;21.83;;;8.07;;
75739;SDS011;64357;51.344;6.550;2022-12-18T16:06:16;23.55;;;8.95;;
75739;SDS011;64357;51.344;6.550;2022-12-18T16:08:44;26.80;;;11.07;;
75739;SDS011;64357;51.344;6.550;2022-12-18T16:11:30;20.30;;;8.05;;
75739;SDS011;64357;51.344;6.550;2022-12-18T16:14:04;22.58;;;7.88;;
75739;SDS011;64357;51.344;6.550;2022-12-18T16:16:34;16.17;;;6.78;;
75739;SDS011;64357;51.344;6.550;2022-12-18T16:19:00;24.47;;;8.17;;
75739;SDS011;64357;51.344;6.550;2022-12-18T16:21:25;21.70;;;8.97;;
75739;SDS011;64357;51.344;6.550;2022-12-18T16:23:53;25.00;;;9.75;;
75739;SDS011;64357;51.344;6.550;2022-12-18T16:26:18;25.83;;;9.70;;
75739;SDS011;64357;51.344;6.550;2022-12-18T16:28:45;27.35;;;10.65;;
75739;SDS011;64357;51.344;6.550;2022-12-18T16:31:13;22.45;;;9.15;;
75739;SDS011;64357;51.344;6.550;2022-12-18T16:33:38;18.53;;;7.80;;
75739;SDS011;64357;51.344;6.550;2022-12-18T16:36:06;22.67;;;8.75;;
75739;SDS011;64357;51.344;6.550;2022-12-18T16:38:32;17.77;;;6.80;;
75739;SDS011;64357;51.344;6.550;2022-12-18T16:40:58;24.38;;;9.65;;
75739;SDS011;64357;51.344;6.550;2022-12-18T16:43:42;21.08;;;7.65;;
75739;SDS011;64357;51.344;6.550;2022-12-18T16:46:10;21.88;;;9.30;;
75739;SDS011;64357;51.344;6.550;2022-12-18T16:48:35;23.25;;;8.00;;
75739;SDS011;64357;51.344;6.550;2022-12-18T16:51:01;23.87;;;7.77;;
75739;SDS011;64357;51.344;6.550;2022-12-18T16:53:28;25.25;;;8.95;;
75739;SDS011;64357;51.344;6.550;2022-12-18T16:55:56;22.05;;;9.63;;
75739;SDS011;64357;51.344;6.550;2022-12-18T16:58:24;22.45;;;7.95;;
75739;SDS011;64357;51.344;6.550;2022-12-18T17:00:49;23.97;;;9.97;;
75739;SDS011;64357;51.344;6.550;2022-12-18T17:03:17;20.88;;;7.65;;
75739;SDS011;64357;51.344;6.550;2022-12-18T17:05:42;19.30;;;7.30;;
75739;SDS011;64357;51.344;6.550;2022-12-18T17:08:10;23.67;;;8.70;;
75739;SDS011;64357;51.344;6.550;2022-12-18T17:10:35;19.73;;;7.60;;
75739;SDS011;64357;51.344;6.550;2022-12-18T17:13:00;23.48;;;9.25;;